Time;durP1;ratioP1;P1;durP2;ratioP2;P2;SDS_P1;SDS_P2;PMS_P1;PMS_P2;Temp;Humidity;BMP_temperature;BMP_pressure;BME280_temperature;BME280_humidity;BME280_pressure;Samples;Min_cycle;Max_cycle;Signal;HPM_P1;HPM_P2
2023/03/19 00:01:14;;;;;;;23.77;13.77;;;10.60;99.90;;;;;;5025976;28;20443;-67
2023/03/19 00:03:40;;;;;;;19.60;14.25;;;10.60;99.90;;;;;;5026030;28;20481;-68
2023/03/19 00:06:06;;;;;;;19.35;13.75;;;10.60;99.90;;;;;;5027586;28;20049;-68
2023/03/19 00:08:32;;;;;;;23.02;14.38;;;10.60;99.90;;;;;;5027816;28;20131;-67
2023/03/19 00:10:57;;;;;;;20.42;14.55;;;10.50;99.90;;;;;;5027654;28;20041;-68
2023/03/19 00:13:23;;;;;;;21.30;13.95;;;10.50;99.90;;;;;;5027850;28;20107;-67
2023/03/19 00:15:49;;;;;;;20.90;15.20;;;10.50;99.90;;;;;;5027679;28;20512;-67
2023/03/19 00:18:15;;;;;;;20.38;13.73;;;10.50;99.90;;;;;;5026198;28;20497;-67
2023/03/19 00:20:40;;;;;;;22.63;15.57;;;10.50;99.90;;;;;;5027463;28;20081;-68
2023/03/19 00:23:06;;;;;;;19.70;14.90;;;10.60;99.90;;;;;;5025793;28;20096;-67
2023/03/19 00:25:32;;;;;;;22.85;15.07;;;10.60;99.90;;;;;;5030028;28;20511;-68
2023/03/19 00:27:58;;;;;;;25.48;14.98;;;10.60;99.90;;;;;;5031521;28;20045;-68
2023/03/19 00:30:24;;;;;;;22.98;14.63;;;10.60;99.90;;;;;;5031476;28;20385;-68
2023/03/19 00:32:49;;;;;;;23.90;15.52;;;10.70;99.90;;;;;;5031292;28;20044;-67
2023/03/19 00:35:15;;;;;;;20.77;14.23;;;10.60;99.90;;;;;;5031448;28;20456;-67
2023/03/19 00:37:41;;;;;;;22.95;13.77;;;10.60;99.90;;;;;;5031729;28;20068;-68
2023/03/19 00:40:07;;;;;;;25.52;14.80;;;10.60;99.90;;;;;;5031337;28;20041;-68
2023/03/19 00:42:33;;;;;;;22.90;14.35;;;10.60;99.90;;;;;;5030923;28;20123;-68
2023/03/19 00:44:59;;;;;;;20.77;14.43;;;10.70;99.90;;;;;;5031368;28;20080;-68
2023/03/19 00:47:26;;;;;;;19.42;13.88;;;10.70;99.90;;;;;;5031240;28;20048;-68
2023/03/19 00:49:52;;;;;;;18.77;13.02;;;10.70;99.90;;;;;;5029815;28;20041;-68
2023/03/19 00:52:17;;;;;;;19.60;13.15;;;10.70;99.90;;;;;;5030689;28;20049;-68
2023/03/19 00:54:43;;;;;;;20.33;12.77;;;10.70;99.90;;;;;;5031021;28;20041;-68
2023/03/19 00:57:09;;;;;;;21.02;12.50;;;10.70;99.90;;;;;;5030803;28;20493;-68
2023/03/19 00:59:35;;;;;;;17.48;12.70;;;10.70;99.90;;;;;;5029578;28;20120;-67
2023/03/19 01:02:00;;;;;;;19.50;11.73;;;10.70;99.90;;;;;;5027598;28;20145;-67
2023/03/19 01:04:26;;;;;;;19.77;12.52;;;10.70;99.90;;;;;;5028480;28;20176;-67
2023/03/19 01:06:52;;;;;;;16.00;11.68;;;10.80;99.90;;;;;;5030503;28;20045;-68
2023/03/19 01:09:17;;;;;;;18.10;11.35;;;10.70;99.90;;;;;;5030521;28;20041;-68
2023/03/19 01:11:43;;;;;;;17.13;11.80;;;10.80;99.90;;;;;;5030196;28;20076;-68
2023/03/19 01:14:09;;;;;;;18.00;10.65;;;10.80;99.90;;;;;;5030415;28;20416;-68
2023/03/19 01:16:34;;;;;;;17.35;11.27;;;10.80;99.90;;;;;;5030636;28;20037;-68
2023/03/19 01:19:01;;;;;;;16.08;10.43;;;10.80;99.90;;;;;;5030497;28;20064;-68
2023/03/19 01:21:29;;;;;;;19.13;10.45;;;10.80;99.90;;;;;;5029914;28;20041;-68
2023/03/19 01:23:56;;;;;;;15.57;10.90;;;10.80;99.90;;;;;;5030220;28;20524;-68
2023/03/19 01:26:22;;;;;;;15.90;10.32;;;10.80;99.90;;;;;;5030505;28;20181;-68
2023/03/19 01:28:48;;;;;;;15.00;10.07;;;10.80;99.90;;;;;;5030354;28;20041;-68
2023/03/19 01:31:15;;;;;;;13.80;9.65;;;10.80;99.90;;;;;;5030212;28;20041;-68
2023/03/19 01:33:41;;;;;;;14.90;10.10;;;10.80;99.90;;;;;;5030270;28;20048;-68
2023/03/19 01:36:08;;;;;;;17.92;11.00;;;10.90;99.90;;;;;;5028965;28;20577;-68
2023/03/19 01:38:33;;;;;;;16.90;10.05;;;10.80;99.90;;;;;;5030291;28;20044;-68
2023/03/19 01:40:59;;;;;;;14.60;9.57;;;10.90;99.90;;;;;;5029482;28;20045;-68
2023/03/19 01:43:27;;;;;;;13.90;10.05;;;10.90;99.90;;;;;;5028559;28;20033;-67
2023/03/19 01:46:06;;;;;;;17.17;10.07;;;10.80;99.90;;;;;;5029950;28;20068;-67
2023/03/19 01:48:45;;;;;;;17.85;10.00;;;10.90;99.90;;;;;;5028684;28;20057;-68
2023/03/19 01:51:15;;;;;;;17.27;11.15;;;10.90;99.90;;;;;;5010839;28;20057;-68
2023/03/19 01:53:46;;;;;;;14.40;10.73;;;10.80;99.90;;;;;;5029604;28;20073;-68
2023/03/19 01:56:18;;;;;;;17.30;11.45;;;10.80;99.90;;;;;;5029528;28;20596;-68
2023/03/19 01:58:47;;;;;;;15.05;11.27;;;10.80;99.90;;;;;;5029469;28;20855;-68
2023/03/19 02:01:16;;;;;;;15.60;11.40;;;10.80;99.90;;;;;;5029542;28;20771;-67
2023/03/19 02:03:42;;;;;;;13.63;10.48;;;10.70;99.90;;;;;;5028268;28;20826;-68
2023/03/19 02:06:11;;;;;;;16.80;11.13;;;10.80;99.90;;;;;;5029759;28;20144;-68
2023/03/19 02:08:38;;;;;;;16.73;12.25;;;10.80;99.90;;;;;;5029725;28;20037;-68
2023/03/19 02:11:04;;;;;;;16.25;11.60;;;10.70;99.90;;;;;;5029278;28;20279;-68
2023/03/19 02:13:30;;;;;;;15.25;10.77;;;10.70;99.90;;;;;;5029617;28;20037;-68
2023/03/19 02:15:57;;;;;;;15.82;11.27;;;10.70;99.90;;;;;;5029570;28;20410;-68
2023/03/19 02:18:24;;;;;;;18.17;10.57;;;10.70;99.90;;;;;;5029347;28;20045;-68
2023/03/19 02:21:02;;;;;;;23.13;10.70;;;10.70;99.90;;;;;;5029348;28;20041;-68
2023/03/19 02:23:42;;;;;;;13.70;9.80;;;10.70;99.90;;;;;;5028099;28;20401;-68
2023/03/19 02:26:19;;;;;;;13.75;9.88;;;10.60;99.90;;;;;;5029189;28;20049;-68
2023/03/19 02:28:47;;;;;;;17.15;10.05;;;10.60;99.90;;;;;;5029285;28;20090;-68
2023/03/19 02:31:13;;;;;;;17.05;9.68;;;10.50;99.90;;;;;;5027524;28;20419;-68
2023/03/19 02:33:39;;;;;;;13.77;9.40;;;10.60;99.90;;;;;;5027583;28;20048;-68
2023/03/19 02:36:09;;;;;;;13.45;9.82;;;10.60;99.90;;;;;;5029026;28;20041;-68
2023/03/19 02:38:38;;;;;;;14.57;9.93;;;10.50;99.90;;;;;;5008017;28;20128;-68
2023/03/19 02:41:07;;;;;;;14.75;9.70;;;10.60;99.90;;;;;;5007777;28;20601;-68
2023/03/19 02:43:34;;;;;;;13.25;9.25;;;10.50;99.90;;;;;;5009353;28;20053;-68
2023/03/19 02:46:03;;;;;;;12.57;8.73;;;10.50;99.90;;;;;;5009086;28;20078;-68
2023/03/19 02:48:30;;;;;;;14.20;9.52;;;10.50;99.90;;;;;;5008934;28;20421;-68
2023/03/19 02:50:56;;;;;;;12.95;8.50;;;10.50;99.90;;;;;;5009209;28;20041;-68
2023/03/19 02:53:21;;;;;;;11.50;7.88;;;10.50;99.90;;;;;;5007495;28;20259;-68
2023/03/19 02:55:47;;;;;;;12.52;8.23;;;10.50;99.90;;;;;;5013253;28;20142;-68
2023/03/19 02:58:13;;;;;;;11.57;7.00;;;10.50;99.90;;;;;;5028191;28;20048;-68
2023/03/19 03:00:40;;;;;;;13.45;7.78;;;10.60;99.90;;;;;;5028521;28;20108;-68
2023/03/19 03:03:06;;;;;;;12.40;7.90;;;10.50;99.90;;;;;;5027907;28;20045;-68
2023/03/19 03:05:33;;;;;;;10.00;7.00;;;10.50;99.90;;;;;;5028601;28;20055;-68
2023/03/19 03:07:58;;;;;;;11.30;7.70;;;10.50;99.90;;;;;;5028498;28;20073;-68
2023/03/19 03:10:24;;;;;;;11.85;8.18;;;10.50;99.90;;;;;;5028379;28;20143;-68
2023/03/19 03:12:50;;;;;;;12.80;7.57;;;10.50;99.90;;;;;;5028028;28;20163;-68
2023/03/19 03:15:17;;;;;;;13.00;7.38;;;10.50;99.90;;;;;;5028251;28;20045;-68
2023/03/19 03:17:44;;;;;;;16.50;9.40;;;10.40;99.90;;;;;;5028334;28;20046;-68
2023/03/19 03:20:12;;;;;;;10.52;7.55;;;10.50;99.90;;;;;;5028115;28;20551;-68
2023/03/19 03:22:38;;;;;;;12.82;8.02;;;10.50;99.90;;;;;;5027639;28;20893;-68
2023/03/19 03:25:04;;;;;;;9.25;7.22;;;10.50;99.90;;;;;;5028290;28;20432;-68
2023/03/19 03:27:30;;;;;;;10.93;7.80;;;10.50;99.90;;;;;;5028131;28;20041;-68
2023/03/19 03:29:56;;;;;;;11.23;7.75;;;10.50;99.90;;;;;;5028112;28;20487;-68
2023/03/19 03:32:22;;;;;;;10.30;7.47;;;10.50;99.90;;;;;;5027575;28;20386;-68
2023/03/19 03:34:47;;;;;;;11.05;7.10;;;10.50;99.90;;;;;;5028152;28;20045;-68
2023/03/19 03:37:13;;;;;;;11.75;7.63;;;10.40;99.90;;;;;;5028037;28;20046;-68
2023/03/19 03:39:39;;;;;;;12.57;6.82;;;10.40;99.90;;;;;;5027813;28;20469;-68
2023/03/19 03:42:05;;;;;;;11.30;7.80;;;10.40;99.90;;;;;;5027630;28;20052;-68
2023/03/19 03:44:30;;;;;;;8.57;6.70;;;10.40;99.90;;;;;;5026843;28;20059;-67
2023/03/19 03:46:56;;;;;;;12.85;6.85;;;10.50;99.90;;;;;;5027738;28;20038;-68
2023/03/19 03:49:22;;;;;;;9.20;6.15;;;10.40;99.90;;;;;;5028044;28;20041;-68
2023/03/19 03:51:48;;;;;;;8.68;6.20;;;10.40;99.90;;;;;;5027537;28;20049;-68
2023/03/19 03:54:14;;;;;;;8.95;6.18;;;10.40;99.90;;;;;;5028094;28;20492;-68
2023/03/19 03:56:39;;;;;;;10.48;5.85;;;10.40;99.90;;;;;;5028016;28;20610;-68
2023/03/19 03:59:06;;;;;;;6.22;5.43;;;10.30;99.90;;;;;;5028000;28;20115;-68
2023/03/19 04:01:32;;;;;;;10.95;5.60;;;10.40;99.90;;;;;;5031717;28;20041;-67
2023/03/19 04:03:58;;;;;;;9.95;5.72;;;10.40;99.90;;;;;;5032373;28;20457;-68
2023/03/19 04:06:25;;;;;;;7.78;5.22;;;10.40;99.90;;;;;;5032176;28;20044;-68
2023/03/19 04:08:51;;;;;;;7.60;5.03;;;10.40;99.90;;;;;;5032047;28;20125;-68
2023/03/19 04:11:17;;;;;;;6.85;5.15;;;10.40;99.90;;;;;;5031439;28;20120;-68
2023/03/19 04:13:42;;;;;;;6.82;5.00;;;10.40;99.90;;;;;;5031675;28;20041;-68
2023/03/19 04:16:09;;;;;;;9.18;5.63;;;10.40;99.90;;;;;;5031746;28;20516;-68
2023/03/19 04:18:36;;;;;;;8.25;4.45;;;10.50;99.90;;;;;;5031913;28;20037;-68
2023/03/19 04:21:03;;;;;;;5.15;4.10;;;10.40;99.90;;;;;;5031172;28;20556;-68
2023/03/19 04:23:28;;;;;;;5.70;4.38;;;10.40;99.90;;;;;;5031475;28;20111;-68
2023/03/19 04:25:59;;;;;;;6.30;4.00;;;10.40;99.90;;;;;;5031645;28;20045;-67
2023/03/19 04:28:25;;;;;;;4.65;4.25;;;10.40;99.90;;;;;;5031625;28;20068;-68
2023/03/19 04:30:50;;;;;;;7.60;5.30;;;10.40;99.90;;;;;;5031705;28;20042;-68
2023/03/19 04:33:16;;;;;;;6.65;4.65;;;10.40;99.90;;;;;;5031018;28;20116;-68
2023/03/19 04:35:42;;;;;;;6.80;4.43;;;10.40;99.90;;;;;;5031358;28;20049;-67
2023/03/19 04:38:07;;;;;;;6.10;4.40;;;10.40;99.90;;;;;;5030814;28;20053;-67
2023/03/19 04:40:34;;;;;;;6.70;4.07;;;10.40;99.90;;;;;;5031323;28;20107;-68
2023/03/19 04:43:00;;;;;;;4.97;4.00;;;10.30;99.90;;;;;;5030708;28;20489;-68
2023/03/19 04:45:26;;;;;;;5.55;4.30;;;10.40;99.90;;;;;;5029519;28;20082;-68
2023/03/19 04:47:51;;;;;;;4.45;3.83;;;10.40;99.90;;;;;;5030727;28;20053;-68
2023/03/19 04:50:17;;;;;;;6.78;4.65;;;10.40;99.90;;;;;;5030717;28;20041;-68
2023/03/19 04:52:43;;;;;;;6.57;4.15;;;10.30;99.90;;;;;;5029397;28;20567;-68
2023/03/19 04:55:09;;;;;;;4.85;4.00;;;10.30;99.90;;;;;;5030960;28;20037;-68
2023/03/19 04:57:35;;;;;;;5.70;4.38;;;10.30;99.90;;;;;;5030861;28;20047;-68
2023/03/19 05:00:01;;;;;;;5.05;4.30;;;10.30;99.90;;;;;;5030877;28;20517;-68
2023/03/19 05:02:27;;;;;;;7.18;4.50;;;10.30;99.90;;;;;;5030727;28;20041;-68
2023/03/19 05:04:52;;;;;;;4.40;3.80;;;10.30;99.90;;;;;;5031173;28;20045;-68
2023/03/19 05:07:18;;;;;;;4.78;3.95;;;10.30;99.90;;;;;;5030971;28;20176;-68
2023/03/19 05:09:45;;;;;;;5.15;4.13;;;10.20;99.90;;;;;;5030868;28;20041;-68
2023/03/19 05:12:11;;;;;;;3.90;3.50;;;10.20;99.90;;;;;;5030498;28;20052;-68
2023/03/19 05:14:36;;;;;;;6.05;4.10;;;10.20;99.90;;;;;;5030598;28;20489;-68
2023/03/19 05:17:02;;;;;;;4.85;4.10;;;10.20;99.90;;;;;;5030658;28;20057;-68
2023/03/19 05:19:28;;;;;;;7.15;4.50;;;10.20;99.90;;;;;;5030458;28;20049;-67
2023/03/19 05:21:56;;;;;;;5.88;4.28;;;10.20;99.90;;;;;;5028896;28;20104;-67
2023/03/19 05:24:22;;;;;;;5.07;4.40;;;10.20;99.90;;;;;;5030757;28;20042;-67
2023/03/19 05:26:48;;;;;;;6.57;4.25;;;10.10;99.90;;;;;;5030275;28;20128;-67
2023/03/19 05:29:14;;;;;;;4.85;4.05;;;10.10;99.90;;;;;;5030629;28;20191;-68
2023/03/19 05:31:40;;;;;;;5.00;4.38;;;10.10;99.90;;;;;;5030043;28;20080;-67
2023/03/19 05:34:06;;;;;;;6.35;4.47;;;10.10;99.90;;;;;;5030393;28;20041;-68
2023/03/19 05:36:33;;;;;;;5.72;4.50;;;10.00;99.90;;;;;;5030311;28;20049;-67
2023/03/19 05:38:59;;;;;;;5.22;4.32;;;10.00;99.90;;;;;;5030223;28;20052;-67
2023/03/19 05:41:25;;;;;;;6.25;4.20;;;10.00;99.90;;;;;;5029599;28;20079;-67
2023/03/19 05:43:50;;;;;;;4.95;4.38;;;10.00;99.90;;;;;;5029080;28;20576;-68
2023/03/19 05:46:16;;;;;;;5.80;4.43;;;10.00;99.90;;;;;;5026745;28;20049;-68
2023/03/19 05:48:42;;;;;;;7.88;4.95;;;9.90;99.90;;;;;;5027435;28;20049;-67
2023/03/19 05:51:08;;;;;;;6.22;4.40;;;9.90;99.90;;;;;;5027592;28;20125;-67
2023/03/19 05:53:34;;;;;;;5.90;4.22;;;9.90;99.90;;;;;;5029738;28;20460;-67
2023/03/19 05:55:59;;;;;;;5.93;5.18;;;9.90;99.90;;;;;;5029039;28;20045;-67
2023/03/19 05:58:25;;;;;;;5.55;4.47;;;9.80;99.90;;;;;;5029252;28;20038;-68
2023/03/19 06:00:55;;;;;;;6.32;3.78;;;9.90;99.90;;;;;;5028017;28;20049;-67
2023/03/19 06:03:21;;;;;;;5.32;4.60;;;9.90;99.90;;;;;;5028280;28;20525;-68
2023/03/19 06:05:50;;;;;;;5.80;4.65;;;9.80;99.90;;;;;;5028195;28;20048;-68
2023/03/19 06:08:16;;;;;;;4.57;3.88;;;9.80;99.90;;;;;;5028457;28;20049;-68
2023/03/19 06:10:41;;;;;;;5.75;4.85;;;9.80;99.90;;;;;;5028257;28;20546;-68
2023/03/19 06:13:07;;;;;;;6.60;4.85;;;9.80;99.90;;;;;;5028700;28;20037;-68
2023/03/19 06:15:33;;;;;;;6.55;4.80;;;9.90;99.90;;;;;;5029441;28;20750;-67
2023/03/19 06:17:58;;;;;;;7.18;4.68;;;9.80;99.90;;;;;;5029549;28;20061;-68
2023/03/19 06:20:24;;;;;;;6.75;4.50;;;9.90;99.90;;;;;;5029241;28;20091;-67
2023/03/19 06:22:50;;;;;;;5.15;4.65;;;9.90;99.90;;;;;;5028225;28;20467;-68
2023/03/19 06:25:16;;;;;;;6.40;4.85;;;9.90;99.90;;;;;;5029162;28;20413;-67
2023/03/19 06:27:42;;;;;;;5.88;4.78;;;9.90;99.90;;;;;;5029447;28;20056;-68
2023/03/19 06:30:08;;;;;;;4.97;4.28;;;9.90;99.90;;;;;;5029263;28;20033;-68
2023/03/19 06:32:35;;;;;;;5.38;4.85;;;9.90;99.90;;;;;;5028945;28;20049;-67
2023/03/19 06:35:01;;;;;;;6.18;4.80;;;9.90;99.90;;;;;;5027976;28;20047;-68
2023/03/19 06:37:26;;;;;;;6.50;4.88;;;9.90;99.90;;;;;;5028954;28;20081;-67
2023/03/19 06:39:53;;;;;;;6.70;4.30;;;9.90;99.90;;;;;;5029147;28;20791;-68
2023/03/19 06:42:20;;;;;;;7.85;5.78;;;9.90;99.90;;;;;;5027387;28;20041;-68
2023/03/19 06:44:46;;;;;;;7.95;5.80;;;9.90;99.90;;;;;;5029061;28;20111;-68
2023/03/19 06:47:13;;;;;;;5.65;4.85;;;9.90;99.90;;;;;;5029142;28;20037;-68
2023/03/19 06:49:39;;;;;;;7.03;4.75;;;10.00;99.90;;;;;;5026737;28;20501;-68
2023/03/19 06:52:05;;;;;;;6.30;4.70;;;9.90;99.90;;;;;;5020411;28;20090;-67
2023/03/19 06:54:31;;;;;;;6.88;4.93;;;10.00;99.90;;;;;;5028480;28;20637;-68
2023/03/19 06:56:56;;;;;;;6.65;4.90;;;10.00;99.90;;;;;;5028479;28;20529;-68
2023/03/19 06:59:22;;;;;;;6.70;5.07;;;10.00;99.90;;;;;;5028837;28;20049;-67
2023/03/19 07:01:48;;;;;;;7.38;4.93;;;10.00;99.90;;;;;;5028322;28;20118;-68
2023/03/19 07:04:13;;;;;;;5.90;4.88;;;10.00;99.90;;;;;;5028820;28;20084;-68
2023/03/19 07:06:39;;;;;;;9.27;5.30;;;10.00;99.90;;;;;;5028909;28;20566;-68
2023/03/19 07:09:05;;;;;;;9.05;5.50;;;10.00;99.90;;;;;;5029113;28;20437;-67
2023/03/19 07:11:31;;;;;;;6.15;5.35;;;10.00;99.90;;;;;;5028706;28;20052;-68
2023/03/19 07:13:56;;;;;;;8.30;5.63;;;10.00;99.90;;;;;;5028838;28;20042;-68
2023/03/19 07:16:22;;;;;;;6.43;5.35;;;10.00;99.90;;;;;;5028385;28;20132;-67
2023/03/19 07:18:47;;;;;;;9.57;5.82;;;10.10;99.90;;;;;;5028547;28;20042;-68
2023/03/19 07:21:13;;;;;;;11.02;6.50;;;10.10;99.90;;;;;;5027846;28;20037;-67
2023/03/19 07:23:40;;;;;;;9.73;6.50;;;10.20;99.90;;;;;;5028052;28;20038;-68
2023/03/19 07:26:05;;;;;;;8.50;6.07;;;10.20;99.90;;;;;;5028394;28;20043;-68
2023/03/19 07:28:31;;;;;;;9.48;6.82;;;10.30;99.90;;;;;;5028370;28;20467;-67
2023/03/19 07:30:57;;;;;;;9.63;7.13;;;10.30;99.90;;;;;;5028097;28;20052;-71
2023/03/19 07:33:23;;;;;;;8.45;6.45;;;10.30;99.90;;;;;;5027636;28;20038;-69
2023/03/19 07:35:48;;;;;;;9.85;6.25;;;10.40;99.90;;;;;;5027223;28;20080;-69
2023/03/19 07:38:15;;;;;;;7.85;6.55;;;10.40;99.90;;;;;;5027452;28;20171;-70
2023/03/19 07:40:41;;;;;;;11.85;7.63;;;10.40;99.90;;;;;;5027955;28;20462;-69
2023/03/19 07:43:07;;;;;;;9.18;6.90;;;10.60;99.90;;;;;;5027795;28;20109;-68
2023/03/19 07:45:32;;;;;;;11.25;7.65;;;10.50;99.90;;;;;;5027723;28;20045;-68
2023/03/19 07:48:02;;;;;;;11.35;7.88;;;10.50;99.90;;;;;;5026181;28;20045;-68
2023/03/19 07:50:30;;;;;;;10.40;7.70;;;10.60;99.90;;;;;;5028161;28;20048;-68
2023/03/19 07:52:56;;;;;;;14.50;8.20;;;10.70;99.90;;;;;;5027200;28;20045;-68
2023/03/19 07:55:23;;;;;;;11.98;8.20;;;10.60;99.90;;;;;;5028115;28;20099;-67
2023/03/19 07:57:49;;;;;;;13.05;8.27;;;10.60;99.90;;;;;;5027951;28;20172;-68
2023/03/19 08:00:15;;;;;;;11.60;8.00;;;10.70;99.90;;;;;;5027739;28;20116;-68
2023/03/19 08:02:41;;;;;;;13.27;9.07;;;10.60;99.90;;;;;;5027390;28;20041;-68
2023/03/19 08:05:08;;;;;;;15.20;8.77;;;10.70;99.90;;;;;;5027544;28;20103;-68
2023/03/19 08:07:34;;;;;;;13.88;8.73;;;10.70;99.90;;;;;;5028066;28;20049;-68
2023/03/19 08:10:01;;;;;;;13.52;9.10;;;10.80;99.90;;;;;;5028017;28;20128;-68
2023/03/19 08:12:26;;;;;;;16.70;9.55;;;10.80;99.90;;;;;;5027407;28;20123;-67
2023/03/19 08:14:52;;;;;;;17.23;10.00;;;10.80;99.90;;;;;;5027992;28;20148;-68
2023/03/19 08:17:18;;;;;;;16.20;9.73;;;10.80;99.90;;;;;;5028103;28;20456;-68
2023/03/19 08:19:43;;;;;;;17.17;10.10;;;10.90;99.90;;;;;;5027972;28;20095;-68
2023/03/19 08:22:09;;;;;;;18.15;10.90;;;10.90;99.90;;;;;;5027846;28;20037;-68
2023/03/19 08:24:35;;;;;;;19.33;11.35;;;10.90;99.90;;;;;;5028472;28;20084;-68
2023/03/19 08:27:00;;;;;;;18.63;10.38;;;11.00;99.90;;;;;;5028259;28;20049;-68
2023/03/19 08:29:26;;;;;;;18.65;11.43;;;11.00;99.90;;;;;;5028005;28;20055;-68
2023/03/19 08:31:53;;;;;;;16.58;10.55;;;11.00;99.90;;;;;;5027388;28;20047;-68
2023/03/19 08:34:19;;;;;;;19.83;11.85;;;11.00;99.90;;;;;;5027660;28;20053;-68
2023/03/19 08:36:45;;;;;;;17.23;11.05;;;11.00;99.90;;;;;;5027574;28;20053;-68
2023/03/19 08:39:11;;;;;;;18.27;10.88;;;11.00;99.90;;;;;;5027676;28;20064;-67
2023/03/19 08:41:36;;;;;;;18.10;11.00;;;11.10;99.90;;;;;;5027412;28;20041;-67
2023/03/19 08:44:02;;;;;;;19.77;11.65;;;11.10;99.90;;;;;;5027326;28;20045;-68
2023/03/19 08:46:29;;;;;;;18.52;11.13;;;11.20;99.90;;;;;;5014935;28;20056;-68
2023/03/19 08:48:54;;;;;;;15.95;10.35;;;11.30;99.90;;;;;;5030310;28;20041;-68
2023/03/19 08:51:20;;;;;;;16.90;11.02;;;11.20;99.90;;;;;;5049013;28;20053;-68
2023/03/19 08:53:46;;;;;;;20.55;11.23;;;11.20;99.90;;;;;;5036968;28;20072;-67
2023/03/19 08:56:12;;;;;;;15.60;10.50;;;11.40;99.90;;;;;;5030958;28;20088;-68
2023/03/19 08:58:38;;;;;;;18.60;11.77;;;11.40;99.90;;;;;;5038752;28;20033;-68
2023/03/19 09:01:09;;;;;;;20.50;10.73;;;11.40;99.90;;;;;;5050158;28;20041;-68
2023/03/19 09:03:36;;;;;;;16.08;10.38;;;11.50;99.90;;;;;;5040789;28;20042;-68
2023/03/19 09:06:04;;;;;;;17.02;10.05;;;11.50;99.90;;;;;;5030444;28;20807;-68
2023/03/19 09:08:30;;;;;;;18.30;10.63;;;11.60;99.90;;;;;;5030252;28;20045;-68
2023/03/19 09:10:56;;;;;;;17.17;10.43;;;11.60;99.90;;;;;;5030154;28;20755;-68
2023/03/19 09:13:23;;;;;;;15.63;9.88;;;11.70;99.90;;;;;;5029894;28;20042;-68
2023/03/19 09:15:49;;;;;;;16.33;10.10;;;11.70;99.90;;;;;;5030324;28;20580;-68
2023/03/19 09:18:15;;;;;;;18.13;10.10;;;11.70;99.90;;;;;;5029756;28;20557;-68
2023/03/19 09:20:41;;;;;;;16.77;9.77;;;11.80;99.90;;;;;;5010808;28;20046;-68
2023/03/19 09:23:07;;;;;;;15.02;10.10;;;11.70;99.90;;;;;;5010304;28;20512;-68
2023/03/19 09:25:33;;;;;;;13.68;9.02;;;11.80;99.90;;;;;;5010424;28;20744;-68
2023/03/19 09:27:59;;;;;;;15.32;8.65;;;11.70;99.90;;;;;;5010725;28;20041;-68
2023/03/19 09:30:24;;;;;;;13.25;8.93;;;11.80;99.90;;;;;;5010796;28;20037;-67
2023/03/19 09:32:50;;;;;;;14.93;9.48;;;11.80;99.90;;;;;;5010309;28;20736;-67
2023/03/19 09:35:16;;;;;;;11.93;8.02;;;11.80;99.90;;;;;;5011108;28;20038;-68
2023/03/19 09:37:41;;;;;;;11.82;8.38;;;11.80;99.90;;;;;;5010984;28;20045;-68
2023/03/19 09:40:20;;;;;;;11.15;7.53;;;11.80;99.90;;;;;;5009467;28;20494;-68
2023/03/19 09:43:12;;;;;;;11.80;8.38;;;11.90;99.90;;;;;;5010321;28;20048;-68
2023/03/19 09:45:38;;;;;;;12.60;7.80;;;11.90;99.90;;;;;;5009264;28;20108;-68
2023/03/19 09:48:13;;;;;;;13.52;7.97;;;12.00;99.90;;;;;;5010500;28;20037;-68
2023/03/19 09:50:39;;;;;;;13.77;8.00;;;12.10;99.90;;;;;;5010152;28;20045;-68
2023/03/19 09:53:14;;;;;;;13.15;8.55;;;12.10;99.90;;;;;;5009993;28;20088;-68
2023/03/19 09:55:48;;;;;;;12.55;7.15;;;12.10;99.90;;;;;;5010370;28;20057;-68
2023/03/19 09:58:17;;;;;;;15.60;7.97;;;12.10;99.90;;;;;;5009198;28;20038;-68
2023/03/19 10:00:50;;;;;;;12.02;7.53;;;12.10;99.90;;;;;;5009853;28;20046;-68
2023/03/19 10:03:15;;;;;;;12.98;8.68;;;12.10;99.90;;;;;;5009647;28;20046;-68
2023/03/19 10:06:03;;;;;;;12.45;8.00;;;12.10;99.90;;;;;;5016655;28;20041;-67
2023/03/19 10:08:40;;;;;;;10.45;7.47;;;12.10;99.90;;;;;;5024740;28;20802;-68
2023/03/19 10:11:09;;;;;;;14.65;8.73;;;12.10;99.90;;;;;;5029491;28;20044;-68
2023/03/19 10:13:46;;;;;;;10.60;7.60;;;12.10;99.90;;;;;;5029569;28;20077;-68
2023/03/19 10:16:21;;;;;;;10.70;7.55;;;12.10;99.90;;;;;;5029055;28;20132;-68
2023/03/19 10:18:50;;;;;;;13.25;8.93;;;12.10;99.90;;;;;;5029480;28;20094;-68
2023/03/19 10:21:35;;;;;;;12.77;7.85;;;12.20;99.90;;;;;;5028867;28;20434;-67
2023/03/19 10:24:19;;;;;;;11.27;7.75;;;12.20;99.90;;;;;;5028116;28;20042;-68
2023/03/19 10:26:45;;;;;;;11.25;8.20;;;12.20;99.90;;;;;;5029078;28;20041;-68
2023/03/19 10:29:16;;;;;;;15.50;8.48;;;12.20;99.90;;;;;;5029178;28;20137;-69
2023/03/19 10:31:52;;;;;;;12.35;8.23;;;12.20;99.90;;;;;;5029039;28;20509;-69
2023/03/19 10:34:33;;;;;;;13.75;8.93;;;12.30;99.90;;;;;;5029444;28;20128;-69
2023/03/19 10:37:05;;;;;;;16.00;9.35;;;12.30;99.90;;;;;;5027545;28;20045;-69
2023/03/19 10:39:34;;;;;;;15.68;8.93;;;12.40;99.90;;;;;;5028809;28;20141;-69
2023/03/19 10:42:04;;;;;;;16.65;10.60;;;12.30;99.90;;;;;;5028697;28;20037;-69
2023/03/19 10:44:36;;;;;;;14.52;8.27;;;12.40;99.90;;;;;;5029086;28;20444;-70
2023/03/19 10:47:15;;;;;;;14.98;8.43;;;12.30;99.90;;;;;;5010939;28;20091;-70
2023/03/19 10:49:41;;;;;;;13.15;8.63;;;12.40;99.90;;;;;;5023309;28;20481;-70
2023/03/19 10:52:29;;;;;;;13.15;8.38;;;12.50;99.90;;;;;;5026611;28;20049;-67
2023/03/19 10:55:01;;;;;;;12.80;8.40;;;12.40;99.90;;;;;;5022529;28;20142;-68
2023/03/19 10:57:30;;;;;;;13.38;9.65;;;12.50;99.90;;;;;;5027092;28;20050;-68
2023/03/19 11:00:05;;;;;;;14.32;9.35;;;12.40;99.90;;;;;;5026825;28;20045;-68
2023/03/19 11:02:31;;;;;;;15.45;9.70;;;12.50;99.90;;;;;;5014327;28;20124;-68
2023/03/19 11:05:12;;;;;;;12.82;8.73;;;12.50;99.90;;;;;;5023426;28;20540;-68
2023/03/19 11:07:38;;;;;;;13.50;8.57;;;12.60;99.90;;;;;;5027018;28;20493;-68
2023/03/19 11:10:11;;;;;;;16.17;8.85;;;12.60;99.90;;;;;;5027917;28;20045;-67
2023/03/19 11:12:37;;;;;;;14.38;9.60;;;12.70;99.90;;;;;;5027653;28;20049;-67
2023/03/19 11:15:21;;;;;;;15.75;9.18;;;12.80;99.90;;;;;;5027966;28;20187;-68
2023/03/19 11:17:54;;;;;;;14.18;9.23;;;12.80;99.90;;;;;;5027348;28;20097;-67
2023/03/19 11:20:26;;;;;;;12.52;8.60;;;12.80;99.90;;;;;;5026608;28;20049;-68
2023/03/19 11:22:54;;;;;;;15.38;9.50;;;12.80;99.90;;;;;;5027696;28;20042;-68
2023/03/19 11:25:27;;;;;;;12.65;9.13;;;12.90;99.90;;;;;;5025197;28;20052;-68
2023/03/19 11:28:05;;;;;;;13.60;9.40;;;12.90;99.90;;;;;;5027787;28;20045;-68
2023/03/19 11:31:03;;;;;;;13.13;8.52;;;12.90;99.90;;;;;;5027814;28;20084;-68
2023/03/19 11:34:20;;;;;;;14.50;8.48;;;12.80;99.90;;;;;;5000700;28;20505;-68
2023/03/19 11:37:06;;;;;;;15.20;8.90;;;12.80;99.90;;;;;;4985714;28;20051;-68
2023/03/19 11:39:44;;;;;;;16.23;9.00;;;12.80;99.90;;;;;;4978192;28;20058;-67
2023/03/19 11:43:04;;;;;;;13.50;8.18;;;12.90;99.90;;;;;;4965973;28;20054;-66
2023/03/19 11:45:45;;;;;;;13.02;7.88;;;13.00;99.90;;;;;;4892100;29;20047;-66
2023/03/19 11:48:40;;;;;;;14.38;9.00;;;13.20;99.90;;;;;;4959980;28;20098;-66
2023/03/19 11:51:23;;;;;;;13.43;8.85;;;13.20;99.90;;;;;;4965958;28;20735;-67
2023/03/19 11:54:04;;;;;;;16.67;10.13;;;13.30;99.90;;;;;;4950100;28;20074;-68
2023/03/19 11:56:42;;;;;;;19.03;9.73;;;13.50;99.90;;;;;;4966254;28;20043;-68
2023/03/19 11:59:45;;;;;;;13.27;7.97;;;13.60;99.90;;;;;;4966219;28;20078;-67
2023/03/19 12:02:22;;;;;;;15.23;9.52;;;13.60;99.90;;;;;;4950105;28;20605;-67
2023/03/19 12:05:05;;;;;;;15.75;8.35;;;13.50;99.90;;;;;;4950122;28;20062;-68
2023/03/19 12:07:36;;;;;;;15.05;9.07;;;13.60;99.90;;;;;;4949983;28;20050;-68
2023/03/19 12:10:26;;;;;;;17.83;10.20;;;13.70;99.90;;;;;;4966261;28;20115;-68
2023/03/19 12:13:14;;;;;;;18.05;10.27;;;13.50;99.90;;;;;;5007111;28;20065;-68
2023/03/19 12:15:51;;;;;;;14.38;9.05;;;13.50;99.90;;;;;;5027762;28;20045;-68
2023/03/19 12:18:52;;;;;;;12.40;8.40;;;13.70;99.90;;;;;;5027774;28;20053;-68
2023/03/19 12:21:40;;;;;;;17.33;9.30;;;13.60;99.90;;;;;;4986773;28;20160;-68
2023/03/19 12:24:20;;;;;;;14.55;8.80;;;13.60;99.90;;;;;;4983738;28;20050;-68
2023/03/19 12:26:56;;;;;;;16.42;9.90;;;13.60;99.90;;;;;;4969745;28;20050;-68
2023/03/19 12:29:44;;;;;;;15.27;9.60;;;13.70;99.90;;;;;;4985845;28;20050;-68
2023/03/19 12:32:36;;;;;;;15.00;9.80;;;13.70;99.90;;;;;;4988777;28;20052;-68
2023/03/19 12:35:09;;;;;;;15.90;9.45;;;13.70;99.90;;;;;;4983051;28;20077;-68
2023/03/19 12:37:50;;;;;;;16.77;11.15;;;13.80;99.90;;;;;;4988222;28;20054;-68
2023/03/19 12:40:21;;;;;;;14.65;9.25;;;13.80;99.90;;;;;;4985769;28;20042;-68
2023/03/19 12:42:47;;;;;;;15.73;9.38;;;13.70;99.90;;;;;;4970380;28;20077;-67
2023/03/19 12:45:24;;;;;;;15.77;9.15;;;13.80;99.90;;;;;;4988788;28;20077;-67
2023/03/19 12:47:56;;;;;;;18.02;9.57;;;13.90;99.90;;;;;;4986008;28;20046;-68